createdAt,value
2017-06-11T00:00:17.105Z,0
2017-06-11T00:01:17.790Z,0
2017-06-11T00:02:18.755Z,0
2017-06-11T00:03:19.890Z,0
2017-06-11T00:04:20.657Z,0
2017-06-11T00:05:21.423Z,0
2017-06-11T00:06:22.134Z,0
2017-06-11T00:07:22.869Z,0
2017-06-11T00:08:23.627Z,0
2017-06-11T00:09:24.793Z,0
2017-06-11T00:10:25.504Z,0
2017-06-11T00:11:26.296Z,0
2017-06-11T00:12:26.946Z,0
2017-06-11T00:13:27.841Z,0
2017-06-11T00:14:28.513Z,0
2017-06-11T00:15:29.460Z,0
2017-06-11T00:16:30.162Z,0
2017-06-11T00:18:46.535Z,0
2017-06-11T00:19:47.421Z,0
2017-06-11T00:20:48.232Z,0
2017-06-11T00:21:49.229Z,0
2017-06-11T00:22:50.075Z,0
2017-06-11T00:23:50.892Z,0
2017-06-11T00:24:51.628Z,0
2017-06-11T00:25:52.415Z,0
2017-06-11T00:26:53.188Z,0
2017-06-11T00:27:54.445Z,0
2017-06-11T00:28:55.141Z,0
2017-06-11T00:29:55.889Z,0
2017-06-11T00:30:56.638Z,0
2017-06-11T00:31:57.445Z,0
2017-06-11T00:32:58.136Z,0
2017-06-11T00:33:59.138Z,0
2017-06-11T00:34:59.815Z,0
2017-06-11T00:36:00.808Z,0
2017-06-11T00:37:01.500Z,0
2017-06-11T00:38:02.190Z,0
2017-06-11T00:39:03.111Z,0
2017-06-11T00:40:04.118Z,0
2017-06-11T00:41:05.857Z,0
2017-06-11T00:42:06.532Z,0
2017-06-11T00:43:07.283Z,0
2017-06-11T00:44:08.101Z,0
2017-06-11T00:45:08.842Z,0
2017-06-11T00:46:09.932Z,0
2017-06-11T00:47:10.819Z,0
2017-06-11T00:48:11.546Z,0
2017-06-11T00:49:12.234Z,0
2017-06-11T00:50:13.188Z,0
2017-06-11T00:51:14.185Z,0
2017-06-11T00:52:14.870Z,0
2017-06-11T00:53:15.867Z,0
2017-06-11T00:54:16.598Z,0
2017-06-11T00:55:17.310Z,0
2017-06-11T00:56:18.114Z,0
2017-06-11T00:57:18.843Z,0
2017-06-11T00:58:19.528Z,0
2017-06-11T00:59:20.774Z,0
2017-06-11T01:00:21.461Z,0
2017-06-11T01:01:22.211Z,0
2017-06-11T01:02:22.906Z,0
2017-06-11T01:04:40.174Z,0
2017-06-11T01:05:40.995Z,0
2017-06-11T01:06:41.769Z,0
2017-06-11T01:07:42.793Z,0
2017-06-11T01:08:43.589Z,0
2017-06-11T01:09:44.771Z,0
2017-06-11T01:10:45.771Z,0
2017-06-11T01:11:46.545Z,0
2017-06-11T01:12:47.240Z,0
2017-06-11T01:13:48.221Z,0
2017-06-11T01:14:49.003Z,0
2017-06-11T01:15:50.100Z,0
2017-06-11T01:16:51.214Z,0
2017-06-11T01:17:51.985Z,0
2017-06-11T01:18:52.801Z,0
2017-06-11T01:19:53.604Z,0
2017-06-11T01:20:54.843Z,0
2017-06-11T01:21:55.567Z,0
2017-06-11T01:22:56.760Z,0
2017-06-11T01:23:57.456Z,0
2017-06-11T01:24:58.149Z,0
2017-06-11T01:25:58.874Z,0
2017-06-11T01:26:59.629Z,0
2017-06-11T01:28:00.325Z,0
2017-06-11T01:29:01.074Z,0
2017-06-11T01:30:02.115Z,0
2017-06-11T01:31:02.850Z,0
2017-06-11T01:32:03.604Z,0
2017-06-11T01:33:04.318Z,0
2017-06-11T01:34:05.004Z,0
2017-06-11T01:35:05.818Z,0
2017-06-11T01:36:07.094Z,0
2017-06-11T01:37:07.844Z,0
2017-06-11T01:38:08.860Z,0
2017-06-11T01:39:09.678Z,0
2017-06-11T01:40:10.402Z,0
2017-06-11T01:41:11.227Z,0
2017-06-11T01:42:12.501Z,0
2017-06-11T01:43:13.557Z,0
2017-06-11T01:44:14.247Z,0
2017-06-11T01:45:15.347Z,0
2017-06-11T01:46:16.015Z,0
2017-06-11T01:47:17.077Z,0
2017-06-11T01:48:18.162Z,0
2017-06-11T01:49:18.920Z,0
2017-06-11T01:50:19.704Z,0
2017-06-11T01:51:20.414Z,0
2017-06-11T01:52:21.169Z,0
2017-06-11T01:53:22.417Z,0
2017-06-11T01:54:23.456Z,0
2017-06-11T01:55:24.147Z,0
2017-06-11T01:56:24.829Z,0
2017-06-11T01:57:25.533Z,0
2017-06-11T01:58:26.383Z,0
2017-06-11T01:59:27.054Z,0
2017-06-11T02:00:28.005Z,0
2017-06-11T02:01:28.734Z,0
2017-06-11T02:02:29.430Z,0
2017-06-11T02:03:30.119Z,0
2017-06-11T02:04:31.093Z,0
2017-06-11T02:05:32.011Z,0
2017-06-11T02:06:33.116Z,0
2017-06-11T02:07:34.158Z,0
2017-06-11T02:08:35.544Z,0
2017-06-11T02:09:36.216Z,0
2017-06-11T02:10:36.902Z,0
2017-06-11T02:11:37.777Z,0
2017-06-11T02:12:38.868Z,0
2017-06-11T02:13:40.005Z,0
2017-06-11T02:14:40.690Z,0
2017-06-11T02:15:41.451Z,0
2017-06-11T02:16:42.325Z,0
2017-06-11T02:17:43.120Z,0
2017-06-11T02:18:44.072Z,0
2017-06-11T02:19:44.858Z,0
2017-06-11T02:20:45.581Z,0
2017-06-11T02:21:46.448Z,0
2017-06-11T02:22:47.133Z,0
2017-06-11T02:23:47.833Z,0
2017-06-11T02:24:48.562Z,0
2017-06-11T02:25:49.551Z,0
2017-06-11T02:26:50.251Z,0
2017-06-11T02:27:50.934Z,0
2017-06-11T02:28:51.639Z,0
2017-06-11T02:29:52.354Z,0
2017-06-11T02:30:53.054Z,0
2017-06-11T02:31:54.024Z,0
2017-06-11T02:32:54.764Z,0
2017-06-11T02:33:55.453Z,0
2017-06-11T02:34:56.137Z,0
2017-06-11T02:35:56.818Z,0
2017-06-11T02:36:57.689Z,0
2017-06-11T02:39:14.144Z,0
2017-06-11T02:40:15.409Z,0
2017-06-11T02:41:16.119Z,0
2017-06-11T02:42:17.359Z,0
2017-06-11T02:43:18.012Z,0
2017-06-11T02:44:18.956Z,0
2017-06-11T02:45:19.666Z,0
2017-06-11T02:46:20.354Z,4
2017-06-11T02:47:21.068Z,4
2017-06-11T02:48:21.818Z,4
2017-06-11T02:49:22.471Z,0
2017-06-11T02:50:23.526Z,4
2017-06-11T02:51:24.278Z,4
2017-06-11T02:52:25.693Z,4
2017-06-11T02:53:26.381Z,8
2017-06-11T02:54:27.080Z,4
2017-06-11T02:55:27.774Z,8
2017-06-11T02:56:28.757Z,8
2017-06-11T02:57:29.692Z,8
2017-06-11T02:58:30.392Z,8
2017-06-11T02:59:31.125Z,8
2017-06-11T03:00:31.818Z,12
2017-06-11T03:01:32.500Z,12
2017-06-11T03:02:33.192Z,12
2017-06-11T03:03:34.134Z,12
2017-06-11T03:04:34.830Z,20
2017-06-11T03:05:35.564Z,20
2017-06-11T03:06:36.254Z,20
2017-06-11T03:07:37.112Z,20
2017-06-11T03:08:38.282Z,28
2017-06-11T03:09:39.426Z,28
2017-06-11T03:10:40.280Z,28
2017-06-11T03:11:41.171Z,32
2017-06-11T03:12:41.923Z,32
2017-06-11T03:13:42.670Z,36
2017-06-11T03:14:43.564Z,40
2017-06-11T03:15:44.591Z,44
2017-06-11T03:16:45.302Z,44
2017-06-11T03:17:46.241Z,48
2017-06-11T03:18:46.981Z,52
2017-06-11T03:19:47.771Z,56
2017-06-11T03:20:48.454Z,60
2017-06-11T03:21:49.697Z,68
2017-06-11T03:22:50.386Z,72
2017-06-11T03:23:51.133Z,76
2017-06-11T03:24:52.015Z,76
2017-06-11T03:25:52.717Z,84
2017-06-11T03:26:53.711Z,88
2017-06-11T03:27:54.744Z,96
2017-06-11T03:28:55.662Z,96
2017-06-11T03:29:56.469Z,108
2017-06-11T03:30:57.176Z,112
2017-06-11T03:31:57.874Z,120
2017-06-11T03:32:58.602Z,128
2017-06-11T03:33:59.639Z,132
2017-06-11T03:35:00.484Z,140
2017-06-11T03:36:01.228Z,148
2017-06-11T03:37:02.121Z,156
2017-06-11T03:38:02.827Z,168
2017-06-11T03:39:03.509Z,176
2017-06-11T03:40:04.505Z,184
2017-06-11T03:41:05.267Z,188
2017-06-11T03:42:05.920Z,192
2017-06-11T03:43:06.609Z,204
2017-06-11T03:44:07.352Z,220
2017-06-11T03:45:08.102Z,244
2017-06-11T03:46:08.839Z,268
2017-06-11T03:47:09.872Z,284
2017-06-11T03:48:11.298Z,300
2017-06-11T03:49:11.966Z,320
2017-06-11T03:50:12.764Z,324
2017-06-11T03:51:13.519Z,324
2017-06-11T03:52:14.554Z,308
2017-06-11T03:53:15.523Z,288
2017-06-11T03:54:16.220Z,272
2017-06-11T03:55:16.933Z,264
2017-06-11T03:56:17.614Z,268
2017-06-11T03:57:18.425Z,272
2017-06-11T03:58:19.262Z,288
2017-06-11T03:59:19.948Z,300
2017-06-11T04:00:21.032Z,320
2017-06-11T04:01:21.731Z,340
2017-06-11T04:02:22.850Z,356
2017-06-11T04:03:23.574Z,368
2017-06-11T04:04:24.343Z,384
2017-06-11T04:05:25.045Z,408
2017-06-11T04:06:26.035Z,444
2017-06-11T04:07:26.928Z,488
2017-06-11T04:08:27.617Z,508
2017-06-11T04:09:28.368Z,508
2017-06-11T04:10:29.087Z,500
2017-06-11T04:11:29.814Z,476
2017-06-11T04:12:30.985Z,456
2017-06-11T04:13:31.707Z,444
2017-06-11T04:14:32.390Z,444
2017-06-11T04:15:33.175Z,440
2017-06-11T04:16:33.978Z,440
2017-06-11T04:17:34.662Z,440
2017-06-11T04:18:35.870Z,448
2017-06-11T04:19:36.668Z,456
2017-06-11T04:20:37.345Z,468
2017-06-11T04:21:38.038Z,480
2017-06-11T04:22:38.794Z,480
2017-06-11T04:23:39.533Z,488
2017-06-11T04:24:40.476Z,500
2017-06-11T04:25:41.165Z,516
2017-06-11T04:26:41.863Z,524
2017-06-11T04:27:42.549Z,540
2017-06-11T04:28:43.284Z,560
2017-06-11T04:29:43.980Z,572
2017-06-11T04:30:45.022Z,588
2017-06-11T04:31:45.813Z,596
2017-06-11T04:32:46.699Z,604
2017-06-11T04:33:47.565Z,604
2017-06-11T04:34:48.283Z,624
2017-06-11T04:35:49.018Z,596
2017-06-11T04:36:50.014Z,592
2017-06-11T04:37:50.734Z,588
2017-06-11T04:38:51.525Z,608
2017-06-11T04:39:52.281Z,644
2017-06-11T04:40:53.083Z,692
2017-06-11T04:41:53.760Z,748
2017-06-11T04:42:54.909Z,772
2017-06-11T04:43:55.590Z,772
2017-06-11T04:44:56.268Z,784
2017-06-11T04:45:56.970Z,820
2017-06-11T04:46:57.668Z,824
2017-06-11T04:47:58.396Z,820
2017-06-11T04:48:59.433Z,808
2017-06-11T04:50:00.102Z,808
2017-06-11T04:51:00.789Z,812
2017-06-11T04:52:01.481Z,812
2017-06-11T04:53:02.187Z,812
2017-06-11T04:54:02.973Z,804
2017-06-11T04:55:04.024Z,768
2017-06-11T04:56:04.693Z,736
2017-06-11T04:57:05.834Z,712
2017-06-11T04:58:06.516Z,676
2017-06-11T04:59:07.368Z,648
2017-06-11T05:00:08.058Z,636
2017-06-11T05:01:09.015Z,644
2017-06-11T05:02:09.717Z,652
2017-06-11T05:03:10.446Z,652
2017-06-11T05:04:11.186Z,660
2017-06-11T05:05:11.943Z,664
2017-06-11T05:06:12.728Z,668
2017-06-11T05:07:14.202Z,672
2017-06-11T05:08:15.035Z,672
2017-06-11T05:09:15.712Z,684
2017-06-11T05:10:16.460Z,700
2017-06-11T05:11:17.184Z,804
2017-06-11T05:12:17.899Z,804
2017-06-11T05:13:18.937Z,852
2017-06-11T05:14:19.624Z,812
2017-06-11T05:15:20.368Z,748
2017-06-11T05:16:21.151Z,756
2017-06-11T05:17:21.942Z,704
2017-06-11T05:18:22.613Z,680
2017-06-11T05:19:23.617Z,680
2017-06-11T05:20:24.304Z,688
2017-06-11T05:21:25.159Z,684
2017-06-11T05:22:26.381Z,680
2017-06-11T05:23:27.383Z,692
2017-06-11T05:24:28.110Z,700
2017-06-11T05:25:29.133Z,712
2017-06-11T05:26:30.416Z,720
2017-06-11T05:27:31.166Z,740
2017-06-11T05:28:31.882Z,756
2017-06-11T05:29:32.630Z,768
2017-06-11T05:30:33.374Z,776
2017-06-11T05:31:34.687Z,788
2017-06-11T05:32:35.429Z,816
2017-06-11T05:33:36.176Z,868
2017-06-11T05:34:36.881Z,876
2017-06-11T05:35:37.636Z,912
2017-06-11T05:36:38.477Z,896
2017-06-11T05:37:39.379Z,880
2017-06-11T05:38:40.150Z,864
2017-06-11T05:39:40.809Z,852
2017-06-11T05:40:41.511Z,840
2017-06-11T05:41:42.294Z,848
2017-06-11T05:42:42.986Z,888
2017-06-11T05:43:43.925Z,856
2017-06-11T05:44:44.617Z,832
2017-06-11T05:45:45.311Z,820
2017-06-11T05:46:46.115Z,900
2017-06-11T05:47:47.157Z,920
2017-06-11T05:48:47.863Z,964
2017-06-11T05:49:49.188Z,984
2017-06-11T05:50:49.875Z,988
2017-06-11T05:51:50.754Z,992
2017-06-11T05:52:51.540Z,1016
2017-06-11T05:53:52.591Z,1036
2017-06-11T05:54:53.325Z,1024
2017-06-11T05:55:54.321Z,960
2017-06-11T05:56:55.151Z,1024
2017-06-11T05:57:55.825Z,1040
2017-06-11T05:58:56.631Z,956
2017-06-11T05:59:57.367Z,1024
2017-06-11T06:00:58.139Z,1028
2017-06-11T06:01:59.196Z,1056
2017-06-11T06:02:59.884Z,1076
2017-06-11T06:04:00.600Z,1084
2017-06-11T06:05:01.346Z,1084
2017-06-11T06:06:02.033Z,1092
2017-06-11T06:07:02.744Z,1084
2017-06-11T06:08:03.817Z,1096
2017-06-11T06:09:04.612Z,1104
2017-06-11T06:10:05.283Z,1120
2017-06-11T06:11:05.982Z,1124
2017-06-11T06:12:06.665Z,1128
2017-06-11T06:13:07.614Z,1104
2017-06-11T06:14:08.348Z,1180
2017-06-11T06:15:09.312Z,1256
2017-06-11T06:16:09.981Z,1352
2017-06-11T06:17:10.686Z,1384
2017-06-11T06:18:11.418Z,1444
2017-06-11T06:19:12.118Z,1512
2017-06-11T06:20:12.870Z,1584
2017-06-11T06:21:13.881Z,1644
2017-06-11T06:22:14.555Z,1696
2017-06-11T06:23:15.648Z,1716
2017-06-11T06:24:16.417Z,1860
2017-06-11T06:25:17.529Z,1968
2017-06-11T06:26:18.881Z,1936
2017-06-11T06:27:20.131Z,1892
2017-06-11T06:28:21.663Z,1872
2017-06-11T06:29:22.703Z,1856
2017-06-11T06:30:23.430Z,1820
2017-06-11T06:31:24.271Z,1780
2017-06-11T06:32:25.021Z,1684
2017-06-11T06:33:26.088Z,1628
2017-06-11T06:34:26.860Z,1720
2017-06-11T06:35:27.599Z,1768
2017-06-11T06:36:28.349Z,1824
2017-06-11T06:37:29.122Z,1780
2017-06-11T06:38:29.949Z,1772
2017-06-11T06:39:30.936Z,1760
2017-06-11T06:40:31.635Z,1792
2017-06-11T06:41:32.332Z,1872
2017-06-11T06:42:33.013Z,1944
2017-06-11T06:43:33.709Z,1940
2017-06-11T06:44:34.423Z,1884
2017-06-11T06:45:35.415Z,1844
2017-06-11T06:46:36.144Z,1760
2017-06-11T06:47:36.858Z,1752
2017-06-11T06:48:37.586Z,1708
2017-06-11T06:49:38.326Z,1708
2017-06-11T06:50:39.035Z,1704
2017-06-11T06:51:40.022Z,1740
2017-06-11T06:52:40.707Z,1772
2017-06-11T06:53:41.457Z,1784
2017-06-11T06:54:42.175Z,1728
2017-06-11T06:55:42.908Z,1760
2017-06-11T06:56:43.679Z,1752
2017-06-11T06:57:44.718Z,1720
2017-06-11T06:58:45.459Z,1696
2017-06-11T06:59:46.156Z,1692
2017-06-11T07:00:46.900Z,1732
2017-06-11T07:01:47.647Z,1668
2017-06-11T07:02:48.345Z,1668
2017-06-11T07:03:49.402Z,1752
2017-06-11T07:04:50.080Z,1800
2017-06-11T07:05:50.782Z,1876
2017-06-11T07:06:51.460Z,1920
2017-06-11T07:07:52.220Z,1940
2017-06-11T07:08:52.899Z,1972
2017-06-11T07:09:53.909Z,1980
2017-06-11T07:10:54.608Z,1988
2017-06-11T07:11:55.341Z,1936
2017-06-11T07:12:56.035Z,1940
2017-06-11T07:13:56.741Z,1892
2017-06-11T07:14:57.413Z,1900
2017-06-11T07:15:59.290Z,1856
2017-06-11T07:16:59.951Z,1812
2017-06-11T07:18:00.646Z,1760
2017-06-11T07:19:01.350Z,1748
2017-06-11T07:20:02.044Z,1744
2017-06-11T07:21:02.718Z,1744
2017-06-11T07:22:03.715Z,1692
2017-06-11T07:23:04.507Z,1724
2017-06-11T07:24:05.199Z,1784
2017-06-11T07:25:05.899Z,1916
2017-06-11T07:26:06.587Z,1976
2017-06-11T07:27:07.289Z,2004
2017-06-11T07:28:08.275Z,1984
2017-06-11T07:29:08.973Z,1944
2017-06-11T07:30:09.728Z,1900
2017-06-11T07:31:10.472Z,1828
2017-06-11T07:32:11.162Z,1820
2017-06-11T07:33:11.910Z,1772
2017-06-11T07:34:12.933Z,1748
2017-06-11T07:35:13.638Z,1708
2017-06-11T07:36:14.380Z,1684
2017-06-11T07:37:15.071Z,1576
2017-06-11T07:38:16.063Z,1568
2017-06-11T07:39:16.763Z,1500
2017-06-11T07:40:17.624Z,1424
2017-06-11T07:41:18.599Z,1456
2017-06-11T07:42:19.348Z,1400
2017-06-11T07:43:20.041Z,1336
2017-06-11T07:44:20.735Z,1308
2017-06-11T07:45:21.478Z,1212
2017-06-11T07:46:22.176Z,1156
2017-06-11T07:47:23.159Z,1228
2017-06-11T07:48:23.868Z,1312
2017-06-11T07:49:24.628Z,1316
2017-06-11T07:50:25.340Z,1352
2017-06-11T07:51:26.039Z,1316
2017-06-11T07:52:26.772Z,1380
2017-06-11T07:53:27.715Z,1448
2017-06-11T07:54:28.435Z,1472
2017-06-11T07:55:29.118Z,1476
2017-06-11T07:56:29.798Z,1476
2017-06-11T07:57:30.489Z,1516
2017-06-11T07:58:31.242Z,1492
2017-06-11T07:59:32.246Z,1484
2017-06-11T08:00:32.952Z,1480
2017-06-11T08:01:33.672Z,1492
2017-06-11T08:02:34.362Z,1432
2017-06-11T08:03:35.059Z,1380
2017-06-11T08:04:35.865Z,1352
2017-06-11T08:05:36.842Z,1288
2017-06-11T08:06:37.585Z,1264
2017-06-11T08:07:38.277Z,1368
2017-06-11T08:08:38.974Z,1360
2017-06-11T08:09:39.669Z,1384
2017-06-11T08:10:40.352Z,1408
2017-06-11T08:11:41.069Z,1444
2017-06-11T08:12:42.006Z,1412
2017-06-11T08:13:42.691Z,1392
2017-06-11T08:14:43.500Z,1408
2017-06-11T08:15:44.198Z,1496
2017-06-11T08:16:44.895Z,1524
2017-06-11T08:17:45.586Z,1524
2017-06-11T08:18:46.553Z,1536
2017-06-11T08:19:47.347Z,1480
2017-06-11T08:20:48.104Z,1424
2017-06-11T08:21:48.841Z,1336
2017-06-11T08:22:49.546Z,1440
2017-06-11T08:23:50.275Z,1496
2017-06-11T08:24:51.280Z,1520
2017-06-11T08:25:51.969Z,1544
2017-06-11T08:26:52.660Z,1572
2017-06-11T08:27:53.351Z,1576
2017-06-11T08:28:54.095Z,1540
2017-06-11T08:29:54.779Z,1516
2017-06-11T08:30:55.811Z,1484
2017-06-11T08:31:56.525Z,1464
2017-06-11T08:32:57.220Z,1468
2017-06-11T08:33:58.016Z,1480
2017-06-11T08:34:58.706Z,1500
2017-06-11T08:35:59.427Z,1560
2017-06-11T08:37:00.427Z,1616
2017-06-11T08:38:01.106Z,1676
2017-06-11T08:39:01.894Z,1736
2017-06-11T08:40:02.599Z,1724
2017-06-11T08:41:03.277Z,1652
2017-06-11T08:42:03.968Z,1684
2017-06-11T08:43:04.917Z,1740
2017-06-11T08:44:05.748Z,1756
2017-06-11T08:45:06.403Z,1760
2017-06-11T08:46:07.110Z,1712
2017-06-11T08:47:07.851Z,1692
2017-06-11T08:48:08.547Z,1712
2017-06-11T08:49:09.655Z,1704
2017-06-11T08:50:10.393Z,1700
2017-06-11T08:51:11.080Z,1688
2017-06-11T08:52:11.770Z,1672
2017-06-11T08:53:12.463Z,1672
2017-06-11T08:54:13.158Z,1632
2017-06-11T08:55:13.903Z,1588
2017-06-11T08:56:14.650Z,1628
2017-06-11T08:57:15.336Z,1596
2017-06-11T08:58:16.055Z,1552
2017-06-11T08:59:16.725Z,1576
2017-06-11T09:00:17.723Z,1524
2017-06-11T09:01:18.474Z,1516
2017-06-11T09:02:19.302Z,1492
2017-06-11T09:03:19.970Z,1520
2017-06-11T09:04:20.663Z,1536
2017-06-11T09:05:21.354Z,1460
2017-06-11T09:06:22.348Z,1488
2017-06-11T09:07:23.029Z,1520
2017-06-11T09:08:23.821Z,1520
2017-06-11T09:09:24.534Z,1456
2017-06-11T09:10:25.264Z,1424
2017-06-11T09:11:25.983Z,1412
2017-06-11T09:12:26.749Z,1400
2017-06-11T09:13:27.790Z,1424
2017-06-11T09:14:28.498Z,1424
2017-06-11T09:15:29.176Z,1408
2017-06-11T09:16:29.891Z,1396
2017-06-11T09:17:30.626Z,1396
2017-06-11T09:18:32.850Z,1440
2017-06-11T09:19:33.553Z,1456
2017-06-11T09:20:34.247Z,1460
2017-06-11T09:21:34.990Z,1460
2017-06-11T09:22:35.718Z,1440
2017-06-11T09:23:36.628Z,1428
2017-06-11T09:24:37.337Z,1364
2017-06-11T09:25:38.040Z,1340
2017-06-11T09:26:38.972Z,1336
2017-06-11T09:27:39.705Z,1328
2017-06-11T09:28:40.460Z,1328
2017-06-11T09:29:41.202Z,1324
2017-06-11T09:30:41.895Z,1372
2017-06-11T09:31:42.761Z,1368
2017-06-11T09:32:43.691Z,1360
2017-06-11T09:33:44.449Z,1400
2017-06-11T09:34:45.130Z,1416
2017-06-11T09:35:45.881Z,1460
2017-06-11T09:36:46.579Z,1516
2017-06-11T09:37:47.262Z,1596
2017-06-11T09:38:48.264Z,1644
2017-06-11T09:39:49.007Z,1652
2017-06-11T09:40:49.728Z,1616
2017-06-11T09:41:50.494Z,1648
2017-06-11T09:42:51.204Z,1684
2017-06-11T09:43:51.934Z,1664
2017-06-11T09:44:52.926Z,1652
2017-06-11T09:45:53.625Z,1604
2017-06-11T09:46:54.408Z,1528
2017-06-11T09:47:55.104Z,1428
2017-06-11T09:48:55.991Z,1384
2017-06-11T09:49:56.698Z,1320
2017-06-11T09:50:57.387Z,1268
2017-06-11T09:51:58.085Z,1236
2017-06-11T09:52:58.780Z,1284
2017-06-11T09:53:59.525Z,1312
2017-06-11T09:55:00.205Z,1364
2017-06-11T09:56:00.890Z,1428
2017-06-11T09:57:01.863Z,1496
2017-06-11T09:58:02.584Z,1560
2017-06-11T09:59:03.341Z,1600
2017-06-11T10:00:04.224Z,1620
2017-06-11T10:01:04.921Z,1580
2017-06-11T10:02:05.622Z,1592
2017-06-11T10:03:06.619Z,1572
2017-06-11T10:04:07.324Z,1524
2017-06-11T10:05:08.086Z,1400
2017-06-11T10:06:08.782Z,1328
2017-06-11T10:07:09.521Z,1292
2017-06-11T10:08:10.219Z,1264
2017-06-11T10:09:11.219Z,1248
2017-06-11T10:10:11.916Z,1248
2017-06-11T10:11:12.605Z,1244
2017-06-11T10:12:13.294Z,1244
2017-06-11T10:13:14.038Z,1240
2017-06-11T10:14:14.829Z,1244
2017-06-11T10:15:15.783Z,1244
2017-06-11T10:16:16.784Z,1240
2017-06-11T10:17:17.719Z,1228
2017-06-11T10:18:18.421Z,1212
2017-06-11T10:19:19.411Z,1208
2017-06-11T10:20:20.106Z,1208
2017-06-11T10:21:21.346Z,1208
2017-06-11T10:22:22.074Z,1204
2017-06-11T10:23:22.824Z,1208
2017-06-11T10:24:23.532Z,1220
2017-06-11T10:25:24.219Z,1228
2017-06-11T10:26:24.956Z,1232
2017-06-11T10:27:25.984Z,1252
2017-06-11T10:28:26.697Z,1276
2017-06-11T10:29:27.404Z,1288
2017-06-11T10:30:28.554Z,1304
2017-06-11T10:31:29.221Z,1304
2017-06-11T10:32:30.169Z,1236
2017-06-11T10:33:31.158Z,1392
2017-06-11T10:34:31.860Z,1404
2017-06-11T10:35:32.538Z,1424
2017-06-11T10:36:33.234Z,1400
2017-06-11T10:37:34.235Z,1352
2017-06-11T10:38:34.962Z,1340
2017-06-11T10:39:36.240Z,1360
2017-06-11T10:40:36.938Z,1360
2017-06-11T10:41:37.670Z,1372
2017-06-11T10:42:38.576Z,1392
2017-06-11T10:43:39.296Z,1392
2017-06-11T10:44:40.011Z,1356
2017-06-11T10:45:41.070Z,1412
2017-06-11T10:46:41.769Z,1452
2017-06-11T10:47:42.787Z,1500
2017-06-11T10:48:43.565Z,1548
2017-06-11T10:49:44.258Z,1556
2017-06-11T10:50:44.951Z,1572
2017-06-11T10:51:45.705Z,1556
2017-06-11T10:52:46.766Z,1540
2017-06-11T10:53:47.516Z,1508
2017-06-11T10:54:48.245Z,1504
2017-06-11T10:55:48.924Z,1472
2017-06-11T10:56:49.677Z,1424
2017-06-11T10:57:50.371Z,1340
2017-06-11T10:58:51.305Z,1308
2017-06-11T10:59:52.196Z,1324
2017-06-11T11:00:52.896Z,1328
2017-06-11T11:01:53.589Z,1368
2017-06-11T11:02:54.288Z,1388
2017-06-11T11:03:55.007Z,1384
2017-06-11T11:04:56.086Z,1380
2017-06-11T11:05:56.793Z,1344
2017-06-11T11:07:00.222Z,1324
2017-06-11T11:08:00.892Z,1276
2017-06-11T11:09:01.585Z,1288
2017-06-11T11:10:02.394Z,1288
2017-06-11T11:11:03.876Z,1304
2017-06-11T11:12:04.624Z,1312
2017-06-11T11:13:05.310Z,1300
2017-06-11T11:14:06.026Z,1320
2017-06-11T11:15:06.736Z,1324
2017-06-11T11:16:07.400Z,1332
2017-06-11T11:17:08.097Z,1340
2017-06-11T11:18:08.958Z,1360
2017-06-11T11:19:09.636Z,1352
2017-06-11T11:20:10.660Z,1344
2017-06-11T11:21:11.342Z,1364
2017-06-11T11:22:12.041Z,1404
2017-06-11T11:23:12.982Z,1384
2017-06-11T11:24:13.681Z,1352
2017-06-11T11:25:14.482Z,1336
2017-06-11T11:26:15.181Z,1328
2017-06-11T11:27:15.925Z,1328
2017-06-11T11:28:16.637Z,1328
2017-06-11T11:29:17.596Z,1316
2017-06-11T11:30:18.362Z,1304
2017-06-11T11:31:19.078Z,1292
2017-06-11T11:32:19.773Z,1284
2017-06-11T11:33:20.475Z,1288
2017-06-11T11:34:21.166Z,1288
2017-06-11T11:35:22.257Z,1276
2017-06-11T11:36:22.958Z,1276
2017-06-11T11:37:23.691Z,1268
2017-06-11T11:38:24.384Z,1272
2017-06-11T11:39:25.067Z,1284
2017-06-11T11:40:25.855Z,1292
2017-06-11T11:41:26.802Z,1300
2017-06-11T11:42:27.503Z,1320
2017-06-11T11:43:28.219Z,1332
2017-06-11T11:44:28.950Z,1340
2017-06-11T11:45:29.884Z,1352
2017-06-11T11:46:30.584Z,1360
2017-06-11T11:47:31.336Z,1372
2017-06-11T11:48:32.622Z,1368
2017-06-11T11:49:33.317Z,1364
2017-06-11T11:50:34.011Z,1360
2017-06-11T11:51:34.795Z,1372
2017-06-11T11:52:35.480Z,1372
2017-06-11T11:53:36.184Z,1380
2017-06-11T11:54:37.179Z,1404
2017-06-11T11:55:37.966Z,1460
2017-06-11T11:56:38.665Z,1520
2017-06-11T11:57:39.369Z,1588
2017-06-11T11:58:40.057Z,1672
2017-06-11T11:59:40.750Z,1772
2017-06-11T12:00:41.758Z,1812
2017-06-11T12:01:42.517Z,1764
2017-06-11T12:02:43.206Z,1680
2017-06-11T12:03:43.874Z,1596
2017-06-11T12:04:44.563Z,1616
2017-06-11T12:05:45.395Z,1632
2017-06-11T12:06:46.363Z,1664
2017-06-11T12:07:47.070Z,1732
2017-06-11T12:08:47.769Z,1816
2017-06-11T12:09:48.490Z,1896
2017-06-11T12:10:49.208Z,1968
2017-06-11T12:11:49.975Z,2020
2017-06-11T12:12:51.082Z,2020
2017-06-11T12:13:51.762Z,2064
2017-06-11T12:14:52.585Z,2088
2017-06-11T12:15:53.294Z,2120
2017-06-11T12:16:53.993Z,2220
2017-06-11T12:17:54.731Z,2320
2017-06-11T12:18:55.767Z,2380
2017-06-11T12:19:56.466Z,2476
2017-06-11T12:20:57.161Z,2600
2017-06-11T12:21:58.009Z,2808
2017-06-11T12:22:58.737Z,3068
2017-06-11T12:23:59.528Z,3312
2017-06-11T12:25:00.464Z,3648
2017-06-11T12:26:01.142Z,3960
2017-06-11T12:27:01.899Z,4220
2017-06-11T12:28:02.723Z,4416
2017-06-11T12:29:03.394Z,4580
2017-06-11T12:30:04.170Z,4420
2017-06-11T12:31:05.225Z,4216
2017-06-11T12:32:05.929Z,4256
2017-06-11T12:33:06.830Z,4336
2017-06-11T12:34:07.519Z,4348
2017-06-11T12:35:08.214Z,3912
2017-06-11T12:36:08.938Z,4172
2017-06-11T12:37:09.905Z,4392
2017-06-11T12:38:10.795Z,4728
2017-06-11T12:39:11.505Z,4868
2017-06-11T12:40:12.250Z,4868
2017-06-11T12:41:12.957Z,4864
2017-06-11T12:42:13.650Z,5028
2017-06-11T12:43:14.705Z,5232
2017-06-11T12:44:15.691Z,5460
2017-06-11T12:45:16.382Z,5620
2017-06-11T12:46:17.085Z,5980
2017-06-11T12:47:17.842Z,6640
2017-06-11T12:48:18.585Z,6800
2017-06-11T12:49:19.268Z,7944
2017-06-11T12:50:20.038Z,10024
2017-06-11T12:51:20.724Z,9740
2017-06-11T12:52:21.428Z,10080
2017-06-11T12:53:22.156Z,11664
2017-06-11T12:54:22.821Z,12204
2017-06-11T12:55:23.770Z,11912
2017-06-11T12:56:24.514Z,9868
2017-06-11T12:57:25.215Z,12444
2017-06-11T12:58:25.961Z,12240
2017-06-11T12:59:26.677Z,11640
2017-06-11T13:00:27.365Z,11468
2017-06-11T13:01:28.071Z,10420
2017-06-11T13:02:29.010Z,11992
2017-06-11T13:03:29.820Z,11192
2017-06-11T13:04:30.560Z,10052
2017-06-11T13:05:31.256Z,14592
2017-06-11T13:06:31.965Z,14320
2017-06-11T13:07:32.659Z,6676
2017-06-11T13:08:33.452Z,14316
2017-06-11T13:09:34.154Z,15188
2017-06-11T13:10:34.876Z,16780
2017-06-11T13:11:35.613Z,12680
2017-06-11T13:12:36.323Z,17452
2017-06-11T13:13:37.115Z,18136
2017-06-11T13:14:38.109Z,18548
2017-06-11T13:15:38.802Z,16900
2017-06-11T13:16:39.500Z,20128
2017-06-11T13:17:40.260Z,13136
2017-06-11T13:18:41.380Z,8188
2017-06-11T13:19:42.059Z,8296
2017-06-11T13:20:43.139Z,8012
2017-06-11T13:21:43.851Z,9484
2017-06-11T13:22:44.548Z,14420
2017-06-11T13:23:45.300Z,9076
2017-06-11T13:24:46.018Z,10776
2017-06-11T13:25:46.724Z,7440
2017-06-11T13:26:47.678Z,5832
2017-06-11T13:27:48.371Z,6528
2017-06-11T13:28:49.166Z,5568
2017-06-11T13:29:49.854Z,5776
2017-06-11T13:30:50.579Z,6096
2017-06-11T13:31:51.253Z,6272
2017-06-11T13:32:51.954Z,5092
2017-06-11T13:33:53.415Z,4184
2017-06-11T13:34:54.160Z,3844
2017-06-11T13:35:54.870Z,3868
2017-06-11T13:36:55.558Z,3696
2017-06-11T13:37:56.281Z,3572
2017-06-11T13:38:57.057Z,3932
2017-06-11T13:39:58.062Z,4752
2017-06-11T13:40:58.840Z,6460
2017-06-11T13:41:59.511Z,15488
2017-06-11T13:43:00.212Z,14680
2017-06-11T13:44:01.007Z,9208
2017-06-11T13:45:01.729Z,7284
2017-06-11T13:46:02.417Z,6188
2017-06-11T13:47:03.388Z,5716
2017-06-11T13:48:04.059Z,5012
2017-06-11T13:49:04.838Z,4068
2017-06-11T13:50:05.543Z,6560
2017-06-11T13:51:06.391Z,5212
2017-06-11T13:52:07.135Z,4700
2017-06-11T13:53:08.143Z,4964
2017-06-11T13:54:08.895Z,4760
2017-06-11T13:55:09.628Z,4568
2017-06-11T13:56:10.392Z,5196